Time;durP1;ratioP1;P1;durP2;ratioP2;P2;SDS_P1;SDS_P2;PMS_P1;PMS_P2;Temp;Humidity;BMP_temperature;BMP_pressure;BME280_temperature;BME280_humidity;BME280_pressure;Samples;Min_cycle;Max_cycle;Signal;HPM_P1;HPM_P2
2021/12/09 00:01:01;;;;;;;9.60;3.70;;;;;;;2.17;100.00;99297.94;8355004;28;20034;-62
2021/12/09 00:05:02;;;;;;;19.38;4.75;;;;;;;2.21;100.00;99288.72;8372977;28;20041;-62
2021/12/09 00:09:07;;;;;;;12.05;4.88;;;;;;;2.30;100.00;99297.81;8355933;28;20120;-62
2021/12/09 00:13:08;;;;;;;13.20;4.50;;;;;;;2.50;100.00;99300.63;8356006;28;20072;-63
2021/12/09 00:17:10;;;;;;;17.52;4.93;;;;;;;2.34;100.00;99284.13;8332339;28;20056;-62
2021/12/09 00:21:11;;;;;;;12.15;4.85;;;;;;;2.33;100.00;99287.78;8318235;28;20064;-62
2021/12/09 00:25:11;;;;;;;10.20;4.18;;;;;;;2.26;100.00;99297.22;8316839;28;20057;-62
2021/12/09 00:29:15;;;;;;;8.63;4.18;;;;;;;2.27;100.00;99290.91;8317287;28;20033;-62
2021/12/09 00:33:16;;;;;;;8.52;3.90;;;;;;;2.27;100.00;99292.72;8343261;28;20033;-62
2021/12/09 00:37:38;;;;;;;11.10;4.90;;;;;;;2.27;100.00;99293.56;8350283;28;20034;-62
2021/12/09 00:41:37;;;;;;;13.30;4.40;;;;;;;2.26;100.00;99294.56;8335739;28;20125;-62
2021/12/09 00:45:38;;;;;;;9.50;4.28;;;;;;;2.32;100.00;99302.06;8317203;28;20045;-62
2021/12/09 00:49:39;;;;;;;6.80;3.75;;;;;;;2.41;100.00;99290.66;8317615;28;20052;-62
2021/12/09 00:53:40;;;;;;;14.52;4.15;;;;;;;2.39;100.00;99287.28;8331079;28;20034;-62
2021/12/09 00:57:41;;;;;;;7.63;3.78;;;;;;;2.42;100.00;99295.06;8343684;28;20045;-62
2021/12/09 01:01:42;;;;;;;8.27;4.05;;;;;;;2.33;100.00;99297.56;8349154;28;20034;-62
2021/12/09 01:05:44;;;;;;;10.35;3.80;;;;;;;2.33;100.00;99302.91;8339982;28;20055;-62
2021/12/09 01:09:44;;;;;;;9.18;4.15;;;;;;;2.24;100.00;99306.28;8324208;28;20041;-62
2021/12/09 01:13:45;;;;;;;14.68;4.22;;;;;;;2.08;100.00;99295.97;8322669;28;20125;-62
2021/12/09 01:17:47;;;;;;;12.68;4.40;;;;;;;2.02;100.00;99299.09;8333056;28;20041;-62
2021/12/09 01:21:47;;;;;;;7.90;4.03;;;;;;;1.91;100.00;99309.72;8316066;28;20048;-62
2021/12/09 01:25:49;;;;;;;22.63;4.72;;;;;;;1.97;100.00;99312.78;8312500;28;20513;-62
2021/12/09 01:29:54;;;;;;;9.52;4.30;;;;;;;2.08;100.00;99319.94;8334353;28;20036;-62
2021/12/09 01:34:00;;;;;;;;;;;;;;;2.11;100.00;99325.06;8344143;28;20033;-62
2021/12/09 01:38:09;;;;;;;11.00;4.80;;;;;;;1.95;100.00;99324.50;8329114;28;20443;-62
2021/12/09 01:42:10;;;;;;;16.58;5.07;;;;;;;2.02;100.00;99331.06;8306781;28;20050;-62
2021/12/09 01:46:13;;;;;;;12.70;4.45;;;;;;;2.00;100.00;99339.19;8298145;28;20045;-62
2021/12/09 01:50:14;;;;;;;13.38;5.00;;;;;;;1.88;100.00;99329.44;8297147;28;20042;-62
2021/12/09 01:54:15;;;;;;;14.73;4.53;;;;;;;1.91;100.00;99328.38;8296372;28;20445;-62
2021/12/09 01:58:16;;;;;;;14.73;4.72;;;;;;;2.04;100.00;99337.13;8298213;28;20030;-62
2021/12/09 02:02:17;;;;;;;12.13;3.88;;;;;;;2.00;100.00;99333.84;8322572;28;20048;-62
2021/12/09 02:06:18;;;;;;;14.63;4.53;;;;;;;2.14;100.00;99330.16;8342052;28;20452;-62
2021/12/09 02:10:20;;;;;;;11.63;5.03;;;;;;;2.27;100.00;99325.56;8321422;28;20064;-62
2021/12/09 02:14:20;;;;;;;11.57;4.55;;;;;;;2.26;100.00;99326.53;8329246;28;20037;-62
2021/12/09 02:18:21;;;;;;;10.02;4.28;;;;;;;2.27;100.00;99325.56;8323103;28;20042;-62
2021/12/09 02:22:22;;;;;;;15.68;4.63;;;;;;;2.32;100.00;99323.41;8340669;28;20048;-62
2021/12/09 02:26:29;;;;;;;13.50;3.95;;;;;;;2.49;100.00;99320.25;8346276;28;20034;-62
2021/12/09 02:30:29;;;;;;;16.33;4.13;;;;;;;2.60;100.00;99317.63;8344992;28;20094;-62
2021/12/09 02:34:30;;;;;;;17.75;5.35;;;;;;;2.59;100.00;99315.91;8344041;28;20028;-62
2021/12/09 02:38:31;;;;;;;8.10;4.60;;;;;;;2.61;100.00;99319.31;8346220;28;20442;-62
2021/12/09 02:42:32;;;;;;;13.52;4.35;;;;;;;2.49;100.00;99319.41;8319670;28;20482;-62
2021/12/09 02:46:37;;;;;;;8.90;4.15;;;;;;;2.35;100.00;99328.47;8310596;28;20117;-62
2021/12/09 02:50:37;;;;;;;;;;;;;;;2.08;100.00;99324.44;8313928;28;20034;-62
2021/12/09 02:54:37;;;;;;;11.87;4.50;;;;;;;2.13;100.00;99328.44;8312448;28;19921;-62
2021/12/09 02:58:39;;;;;;;10.68;5.18;;;;;;;2.26;100.00;99323.03;8316713;28;20833;-62
2021/12/09 03:02:42;;;;;;;15.70;4.95;;;;;;;2.22;100.00;99327.72;8339424;28;20034;-62
2021/12/09 03:06:43;;;;;;;11.18;4.97;;;;;;;2.28;100.00;99321.91;8322763;28;20489;-62
2021/12/09 03:10:43;;;;;;;13.55;5.18;;;;;;;2.13;100.00;99328.44;8343043;28;20396;-64
2021/12/09 03:14:44;;;;;;;13.32;5.47;;;;;;;2.11;100.00;99332.19;8340211;28;20045;-64
2021/12/09 03:18:52;;;;;;;17.40;5.03;;;;;;;1.94;100.00;99329.00;8340504;28;20432;-64
2021/12/09 03:22:52;;;;;;;16.05;4.93;;;;;;;1.87;100.00;99322.41;8339913;28;20091;-64
2021/12/09 03:26:57;;;;;;;9.60;4.93;;;;;;;1.85;100.00;99323.50;8324640;28;20049;-64
2021/12/09 03:30:58;;;;;;;13.85;5.45;;;;;;;1.74;100.00;99315.47;8330064;28;20061;-64
2021/12/09 03:34:58;;;;;;;14.18;5.53;;;;;;;1.68;100.00;99321.25;8339710;28;20042;-64
2021/12/09 03:39:03;;;;;;;13.70;5.15;;;;;;;1.70;100.00;99324.63;8338224;28;20468;-64
2021/12/09 03:43:03;;;;;;;14.23;5.32;;;;;;;1.77;100.00;99324.06;8317749;28;20092;-64
2021/12/09 03:47:07;;;;;;;15.43;5.22;;;;;;;1.71;100.00;99316.53;8339864;28;20045;-64
2021/12/09 03:51:08;;;;;;;10.50;5.25;;;;;;;1.68;100.00;99313.28;8319892;28;20038;-64
2021/12/09 03:55:09;;;;;;;9.13;5.18;;;;;;;1.79;100.00;99318.63;8313500;28;20050;-64
2021/12/09 03:59:11;;;;;;;17.67;5.65;;;;;;;1.85;100.00;99315.50;8322060;28;20106;-64
2021/12/09 04:03:11;;;;;;;10.38;4.70;;;;;;;1.76;100.00;99321.53;8335592;28;20108;-64
2021/12/09 04:07:12;;;;;;;10.88;5.13;;;;;;;1.81;100.00;99322.03;8333205;28;20037;-64
2021/12/09 04:11:12;;;;;;;12.52;5.32;;;;;;;1.77;100.00;99315.25;8314618;28;20037;-64
2021/12/09 04:15:13;;;;;;;20.77;5.10;;;;;;;1.80;100.00;99310.53;8316581;28;20053;-64
2021/12/09 04:19:14;;;;;;;14.13;4.80;;;;;;;1.74;100.00;99318.16;8323979;28;20026;-64
2021/12/09 04:23:14;;;;;;;15.38;5.40;;;;;;;1.71;100.00;99326.38;8312300;28;20064;-64
2021/12/09 04:27:15;;;;;;;12.20;5.20;;;;;;;1.66;100.00;99324.03;8312433;28;20532;-64
2021/12/09 04:31:16;;;;;;;8.65;4.70;;;;;;;1.75;100.00;99327.81;8321586;28;20041;-64
2021/12/09 04:35:16;;;;;;;17.20;5.60;;;;;;;1.76;100.00;99334.84;8342550;28;20053;-64
2021/12/09 04:39:17;;;;;;;10.52;4.78;;;;;;;1.79;100.00;99329.28;8327988;28;20029;-64
2021/12/09 04:43:17;;;;;;;17.00;4.95;;;;;;;1.87;100.00;99337.56;8319203;28;20030;-64
2021/12/09 04:47:18;;;;;;;17.55;5.57;;;;;;;1.93;100.00;99342.44;8316673;28;20057;-64
2021/12/09 04:51:18;;;;;;;11.95;5.15;;;;;;;1.90;100.00;99342.66;8324974;28;20045;-64
2021/12/09 04:55:19;;;;;;;17.13;5.38;;;;;;;1.84;100.00;99348.44;8325351;28;20128;-64
2021/12/09 04:59:19;;;;;;;14.60;5.55;;;;;;;1.83;100.00;99349.44;8311176;28;20029;-64
2021/12/09 05:03:20;;;;;;;19.60;5.05;;;;;;;1.74;100.00;99352.78;8323209;28;20493;-64
2021/12/09 05:07:20;;;;;;;12.15;5.00;;;;;;;1.54;100.00;99377.34;8322184;28;20045;-64
2021/12/09 05:16:03;;;;;;;17.85;5.28;;;;;;;1.32;100.00;99383.41;8347894;27;20392;-64
2021/12/09 05:20:05;;;;;;;14.52;5.32;;;;;;;1.43;100.00;99399.41;8315005;28;20044;-64
2021/12/09 05:24:10;;;;;;;13.80;5.43;;;;;;;1.55;100.00;99400.34;8349417;28;20041;-64
2021/12/09 05:28:15;;;;;;;13.38;5.32;;;;;;;1.50;100.00;99394.50;8337384;28;20034;-64
2021/12/09 05:32:17;;;;;;;17.20;5.70;;;;;;;1.49;100.00;99408.78;8294182;28;20121;-64
2021/12/09 05:36:18;;;;;;;12.90;5.68;;;;;;;1.33;100.00;99418.81;8296276;28;20038;-64
2021/12/09 05:40:19;;;;;;;11.90;6.35;;;;;;;1.36;100.00;99421.28;8284116;28;20233;-64
2021/12/09 05:44:19;;;;;;;16.48;5.53;;;;;;;1.64;100.00;99424.50;8299586;28;20045;-64
2021/12/09 05:48:20;;;;;;;13.00;5.47;;;;;;;1.61;100.00;99421.19;8291201;28;20042;-64
2021/12/09 05:52:20;;;;;;;19.60;6.95;;;;;;;1.53;100.00;99434.25;8298866;28;20039;-64
2021/12/09 05:56:22;;;;;;;17.20;7.15;;;;;;;1.54;100.00;99425.28;8303740;28;20123;-64
2021/12/09 06:00:22;;;;;;;12.35;5.85;;;;;;;1.52;100.00;99433.38;8294530;28;20038;-64
2021/12/09 06:04:23;;;;;;;13.88;6.15;;;;;;;1.57;100.00;99427.72;8297456;28;20116;-64
2021/12/09 06:08:24;;;;;;;11.20;6.32;;;;;;;1.57;100.00;99435.72;8275919;28;20050;-62
2021/12/09 06:12:24;;;;;;;17.90;6.20;;;;;;;1.62;100.00;99444.22;8289689;28;20034;-62
2021/12/09 06:16:25;;;;;;;13.98;6.43;;;;;;;1.67;100.00;99447.38;8291772;28;20042;-62
2021/12/09 06:20:26;;;;;;;13.65;6.03;;;;;;;1.66;100.00;99453.69;8303282;28;20512;-62
2021/12/09 06:24:26;;;;;;;18.15;6.13;;;;;;;1.68;100.00;99457.09;8312062;28;20065;-62
2021/12/09 06:28:27;;;;;;;22.00;8.15;;;;;;;1.69;100.00;99456.13;8265428;28;20038;-62
2021/12/09 06:32:27;;;;;;;14.30;5.70;;;;;;;1.67;100.00;99453.56;8264998;28;20038;-62
2021/12/09 06:36:28;;;;;;;10.80;5.43;;;;;;;1.68;100.00;99438.47;8287690;28;20053;-64
2021/12/09 06:40:28;;;;;;;15.20;6.40;;;;;;;1.89;100.00;99436.84;8295876;28;20042;-62
2021/12/09 06:44:29;;;;;;;15.88;6.25;;;;;;;2.00;100.00;99444.91;8299799;28;20042;-62
2021/12/09 06:48:29;;;;;;;17.05;6.65;;;;;;;2.08;100.00;99450.56;8301121;28;20045;-62
2021/12/09 06:52:30;;;;;;;17.35;6.97;;;;;;;1.98;100.00;99462.81;8302454;28;20533;-62
2021/12/09 06:56:32;;;;;;;14.13;5.97;;;;;;;1.80;100.00;99458.88;8286014;28;20092;-62
2021/12/09 07:00:35;;;;;;;17.00;6.70;;;;;;;1.74;100.00;99459.31;8289308;28;20038;-62
2021/12/09 07:04:36;;;;;;;23.33;7.83;;;;;;;1.61;100.00;99458.47;8304875;28;20095;-62
2021/12/09 07:08:44;;;;;;;21.88;9.27;;;;;;;1.48;100.00;99457.66;8288387;28;20043;-62
2021/12/09 07:12:44;;;;;;;25.00;8.65;;;;;;;1.42;100.00;99458.09;8304522;28;20046;-62
2021/12/09 07:16:45;;;;;;;20.55;8.05;;;;;;;1.32;100.00;99457.06;8300605;28;20050;-62
2021/12/09 07:20:45;;;;;;;22.98;7.88;;;;;;;1.30;100.00;99454.50;8289965;28;20057;-62
2021/12/09 07:24:46;;;;;;;18.90;6.68;;;;;;;1.31;100.00;99466.03;8301844;28;20042;-62
2021/12/09 07:28:46;;;;;;;19.45;7.53;;;;;;;1.32;100.00;99452.59;8299643;28;20062;-62
2021/12/09 07:32:48;;;;;;;19.83;7.22;;;;;;;1.41;100.00;99459.06;8289475;28;20107;-63
2021/12/09 07:36:49;;;;;;;15.25;6.72;;;;;;;1.49;100.00;99462.03;8292418;28;20044;-63
2021/12/09 07:40:49;;;;;;;13.32;6.47;;;;;;;1.46;100.00;99472.88;8293369;28;20058;-63
2021/12/09 07:44:50;;;;;;;16.63;6.22;;;;;;;1.65;100.00;99476.78;8293474;28;20030;-63
2021/12/09 07:48:50;;;;;;;14.20;6.07;;;;;;;1.79;100.00;99470.47;8290060;28;20035;-62
2021/12/09 07:52:51;;;;;;;13.30;6.45;;;;;;;1.91;100.00;99483.75;8285625;28;20664;-61
2021/12/09 07:56:52;;;;;;;19.17;8.07;;;;;;;1.62;100.00;99492.16;8297519;28;20045;-61
2021/12/09 08:00:52;;;;;;;15.85;7.20;;;;;;;1.61;100.00;99475.31;8279063;28;20052;-61
2021/12/09 08:04:52;;;;;;;17.23;6.63;;;;;;;1.74;100.00;99480.63;8266468;28;20038;-61
2021/12/09 08:08:53;;;;;;;18.88;7.50;;;;;;;1.57;100.00;99484.50;8297821;28;20060;-61
2021/12/09 08:12:53;;;;;;;18.25;6.40;;;;;;;1.69;100.00;99483.63;8264923;28;20062;-61
2021/12/09 08:17:11;;;;;;;15.95;6.85;;;;;;;1.92;100.00;99487.25;8264412;28;20125;-61
2021/12/09 08:21:11;;;;;;;13.50;5.07;;;;;;;1.86;100.00;99485.06;8297499;28;20041;-61
2021/12/09 08:25:13;;;;;;;14.88;5.88;;;;;;;2.49;100.00;99500.75;8297753;28;20152;-61
2021/12/09 08:29:14;;;;;;;11.00;4.78;;;;;;;2.90;100.00;99495.81;8295610;28;20068;-61
2021/12/09 08:33:14;;;;;;;12.18;4.90;;;;;;;3.54;100.00;99493.34;8295104;28;20121;-61
2021/12/09 08:37:14;;;;;;;7.20;4.32;;;;;;;4.58;93.93;99503.47;8282996;28;20056;-63
2021/12/09 08:41:17;;;;;;;12.45;5.13;;;;;;;4.96;90.53;99490.38;8291008;28;20445;-63
2021/12/09 08:45:19;;;;;;;8.05;4.97;;;;;;;5.45;88.54;99495.00;8289874;28;20057;-63
2021/12/09 08:49:20;;;;;;;12.27;5.20;;;;;;;5.92;86.41;99489.88;8290959;28;20081;-63
2021/12/09 08:53:23;;;;;;;9.07;5.22;;;;;;;6.26;84.53;99485.03;8290612;28;20045;-63
2021/12/09 08:57:24;;;;;;;10.70;4.33;;;;;;;6.67;82.88;99492.84;8289562;28;20066;-62
2021/12/09 09:01:24;;;;;;;9.25;5.35;;;;;;;6.39;83.18;99493.66;8293474;28;20242;-62
2021/12/09 09:05:25;;;;;;;10.27;5.15;;;;;;;6.48;83.05;99503.56;8294675;28;20516;-62
2021/12/09 09:09:27;;;;;;;8.32;4.97;;;;;;;6.59;83.04;99503.41;8297109;28;20038;-62
2021/12/09 09:13:28;;;;;;;8.82;4.55;;;;;;;7.12;81.54;99511.91;8293995;28;20049;-62
2021/12/09 09:17:28;;;;;;;13.50;4.28;;;;;;;7.59;79.78;99514.47;8294636;28;20065;-62
2021/12/09 09:21:29;;;;;;;10.00;3.50;;;;;;;7.76;78.33;99511.03;8293663;28;20064;-62
2021/12/09 09:25:29;;;;;;;7.47;3.67;;;;;;;7.73;78.42;99513.16;8294209;28;20671;-62
2021/12/09 09:29:32;;;;;;;7.57;3.60;;;;;;;7.60;79.37;99508.09;8276806;28;20099;-62
2021/12/09 09:33:32;;;;;;;10.10;4.20;;;;;;;8.40;77.50;99504.78;8293418;28;20077;-62
2021/12/09 09:37:33;;;;;;;8.98;3.55;;;;;;;8.69;76.20;99500.88;8294669;28;20038;-62
2021/12/09 09:41:34;;;;;;;11.57;4.00;;;;;;;8.84;75.77;99507.41;8294008;28;20034;-62
2021/12/09 09:45:34;;;;;;;10.13;3.97;;;;;;;8.89;75.10;99505.13;8293750;28;20498;-62
2021/12/09 09:49:35;;;;;;;11.77;4.43;;;;;;;9.05;74.49;99512.47;8293637;28;20480;-62
2021/12/09 09:53:38;;;;;;;6.72;3.42;;;;;;;9.31;74.16;99508.00;8292757;28;20404;-62
2021/12/09 09:57:38;;;;;;;15.40;4.47;;;;;;;9.42;74.00;99515.81;8294048;28;20042;-62
2021/12/09 10:01:41;;;;;;;6.78;3.65;;;;;;;10.18;72.85;99514.94;8297273;28;20039;-62
2021/12/09 10:05:44;;;;;;;12.88;2.78;;;;;;;10.99;68.95;99506.03;8298665;28;20046;-62
2021/12/09 10:09:46;;;;;;;11.45;3.53;;;;;;;11.32;68.01;99501.47;8299523;28;20099;-62
2021/12/09 10:13:47;;;;;;;9.10;3.10;;;;;;;11.15;68.09;99506.03;8298115;28;20544;-62
2021/12/09 10:17:47;;;;;;;8.65;3.78;;;;;;;10.53;70.18;99506.63;8296623;28;20439;-62
2021/12/09 10:21:49;;;;;;;14.13;4.60;;;;;;;9.39;72.59;99510.72;8297659;28;20532;-62
2021/12/09 10:26:10;;;;;;;10.75;5.15;;;;;;;7.39;80.33;99507.47;8297126;28;20140;-62
2021/12/09 10:30:19;;;;;;;13.57;4.88;;;;;;;6.51;85.61;99499.75;8297994;28;20125;-62
2021/12/09 10:34:34;;;;;;;16.50;6.03;;;;;;;6.18;89.19;99495.59;8297376;28;20053;-62
2021/12/09 10:38:34;;;;;;;16.85;6.15;;;;;;;6.09;90.70;99491.06;8298268;28;20394;-62
2021/12/09 10:42:38;;;;;;;13.55;4.78;;;;;;;6.20;91.42;99488.28;8297129;28;20041;-62
2021/12/09 10:47:04;;;;;;;11.98;4.90;;;;;;;6.15;92.96;99479.78;8297385;28;20037;-62
2021/12/09 10:51:23;;;;;;;18.55;4.30;;;;;;;6.24;91.13;99478.94;8291944;28;20050;-62
2021/12/09 10:55:29;;;;;;;9.40;3.20;;;;;;;6.39;90.00;99477.56;8273406;28;20042;-62
2021/12/09 10:59:30;;;;;;;11.50;4.28;;;;;;;6.50;88.73;99474.75;8283958;28;20054;-62
2021/12/09 11:03:54;;;;;;;10.80;3.40;;;;;;;6.67;87.83;99465.97;8292409;28;20121;-62
2021/12/09 11:08:12;;;;;;;6.78;3.50;;;;;;;6.70;88.16;99471.06;8289055;28;20079;-65
2021/12/09 11:12:29;;;;;;;9.73;3.88;;;;;;;6.76;87.69;99453.53;8292217;28;20038;-64
2021/12/09 11:16:33;;;;;;;7.22;3.10;;;;;;;6.79;87.70;99456.78;8276988;28;20081;-64
2021/12/09 11:20:42;;;;;;;6.63;3.38;;;;;;;6.83;87.19;99450.13;8292352;28;20124;-64
2021/12/09 11:24:46;;;;;;;6.57;2.63;;;;;;;6.86;85.96;99443.66;8287523;28;20042;-64
2021/12/09 11:28:54;;;;;;;5.63;2.67;;;;;;;6.87;86.55;99439.97;8282931;28;20432;-64
2021/12/09 11:33:00;;;;;;;7.63;2.72;;;;;;;6.85;86.01;99442.78;8291279;28;20401;-64
2021/12/09 11:37:10;;;;;;;11.60;3.03;;;;;;;6.92;85.65;99438.53;8283225;28;20061;-64
2021/12/09 11:41:32;;;;;;;7.90;3.08;;;;;;;6.88;86.53;99436.28;8275324;28;20057;-64
2021/12/09 11:45:36;;;;;;;9.30;3.25;;;;;;;6.76;87.68;99438.28;8290710;28;20046;-64
2021/12/09 11:49:37;;;;;;;8.68;3.38;;;;;;;6.70;90.14;99438.84;8289616;28;20137;-64
2021/12/09 11:53:42;;;;;;;10.07;3.67;;;;;;;6.60;91.06;99435.31;8288821;28;20041;-64
2021/12/09 11:57:49;;;;;;;6.55;2.95;;;;;;;6.63;90.95;99426.13;8270477;28;20046;-64
2021/12/09 12:07:31;;;;;;;11.65;3.88;;;;;;;6.85;86.45;99426.66;8279378;28;20057;-64
2021/12/09 12:15:45;;;;;;;4.80;2.05;;;;;;;6.96;84.68;99423.84;8402900;27;20844;-64
2021/12/09 12:20:40;;;;;;;4.15;2.20;;;;;;;6.94;85.14;99420.44;8372333;28;20072;-64
2021/12/09 12:24:36;;;;;;;4.65;2.80;;;;;;;6.88;86.10;99418.31;8365379;28;20090;-64
2021/12/09 12:33:06;;;;;;;7.10;2.53;;;;;;;6.82;86.53;99426.97;8404576;27;20499;-64
2021/12/09 12:37:13;;;;;;;7.65;2.65;;;;;;;6.83;85.95;99427.81;8399984;28;20048;-64
2021/12/09 12:41:16;;;;;;;10.55;2.90;;;;;;;6.82;86.25;99410.84;8415959;28;20523;-64
2021/12/09 12:45:32;;;;;;;8.02;3.60;;;;;;;6.74;87.09;99421.44;8412056;28;20037;-64
2021/12/09 12:49:36;;;;;;;5.45;2.75;;;;;;;6.69;86.98;99421.03;8364236;28;20122;-65
2021/12/09 12:53:41;;;;;;;4.65;2.55;;;;;;;6.73;86.22;99417.06;8376009;28;20412;-64
2021/12/09 12:57:47;;;;;;;5.50;2.22;;;;;;;6.68;86.42;99419.31;8389534;28;20032;-64
2021/12/09 13:03:19;;;;;;;6.15;2.50;;;;;;;6.73;87.24;99417.06;8395324;28;20124;-64
2021/12/09 13:06:49;;;;;;;7.88;3.72;;;;;;;6.61;87.91;99418.22;8388792;28;20028;-64
2021/12/09 13:15:25;;;;;;;12.82;5.57;;;;;;;6.62;88.09;99419.91;8301052;28;20411;-64
2021/12/09 13:19:34;;;;;;;5.80;2.90;;;;;;;6.62;87.78;99424.44;8335629;28;20041;-64
2021/12/09 13:23:34;;;;;;;2.65;2.10;;;;;;;6.61;87.40;99418.22;8344775;28;20037;-64
2021/12/09 13:37:31;;;;;;;3.38;1.75;;;;;;;6.57;88.01;99410.59;8412846;27;20443;-64
2021/12/09 13:46:07;;;;;;;2.30;1.58;;;;;;;6.52;88.85;99413.69;8284923;28;20360;-64
2021/12/09 13:50:46;;;;;;;4.85;3.22;;;;;;;6.47;89.11;99407.94;8251653;28;20185;-64
2021/12/09 13:54:52;;;;;;;6.93;2.97;;;;;;;6.44;90.51;99421.63;8312148;28;20042;-64
2021/12/09 13:58:53;;;;;;;12.90;7.38;;;;;;;6.47;90.29;99415.13;8313628;28;20129;-64
2021/12/09 14:07:23;;;;;;;15.38;9.35;;;;;;;6.47;89.97;99415.97;8288383;28;20393;-64
2021/12/09 14:11:34;;;;;;;6.05;4.75;;;;;;;6.53;90.05;99404.69;8297005;28;20109;-64
2021/12/09 14:15:40;;;;;;;6.43;2.78;;;;;;;6.54;90.10;99406.34;8311302;28;20037;-64
2021/12/09 14:20:13;;;;;;;4.53;2.35;;;;;;;6.52;90.97;99411.00;8298557;28;20061;-64
2021/12/09 14:24:07;;;;;;;4.93;2.53;;;;;;;6.59;89.91;99414.81;8308656;28;20096;-64
2021/12/09 14:28:10;;;;;;;;;;;;;;;6.59;90.41;99404.06;8312336;28;20044;-64
2021/12/09 14:32:10;;;;;;;8.35;4.05;;;;;;;6.54;91.23;99417.09;8311302;28;20450;-64
2021/12/09 14:36:13;;;;;;;6.25;3.95;;;;;;;6.50;91.62;99415.69;8301560;28;20421;-64
2021/12/09 14:40:18;;;;;;;2.28;1.58;;;;;;;6.47;92.16;99418.66;8311491;28;20088;-64
2021/12/09 14:44:19;;;;;;;3.17;1.63;;;;;;;6.48;92.64;99420.34;8311536;28;20030;-64
2021/12/09 14:48:42;;;;;;;1.40;1.25;;;;;;;6.49;92.67;99419.34;8310890;28;20169;-64
2021/12/09 14:52:43;;;;;;;4.73;1.73;;;;;;;6.51;92.15;99422.75;8310875;28;20076;-64
2021/12/09 14:56:48;;;;;;;4.07;2.65;;;;;;;6.52;91.42;99424.44;8315036;28;20147;-64
2021/12/09 15:00:57;;;;;;;9.07;3.67;;;;;;;6.57;91.92;99432.94;8310679;28;20099;-64
2021/12/09 15:05:04;;;;;;;4.30;3.05;;;;;;;6.52;92.37;99428.97;8309205;28;20099;-64
2021/12/09 15:09:14;;;;;;;2.95;1.98;;;;;;;6.43;93.28;99425.28;8289680;28;20048;-64
2021/12/09 15:13:14;;;;;;;4.18;2.97;;;;;;;6.41;93.24;99423.75;8312143;28;20049;-64
2021/12/09 15:17:21;;;;;;;3.72;2.60;;;;;;;6.39;93.13;99428.38;8309660;28;20167;-64
2021/12/09 15:21:24;;;;;;;2.97;1.88;;;;;;;6.42;93.10;99426.28;8312383;28;20041;-64
2021/12/09 15:25:36;;;;;;;5.50;2.38;;;;;;;6.35;93.11;99425.16;8320126;28;20037;-64
2021/12/09 15:29:46;;;;;;;8.93;3.42;;;;;;;6.34;93.20;99427.97;8312672;28;20037;-64
2021/12/09 15:33:51;;;;;;;7.20;3.70;;;;;;;6.31;93.62;99426.41;8313197;28;20033;-64
2021/12/09 15:37:52;;;;;;;5.45;2.60;;;;;;;6.31;93.47;99421.03;8317819;28;20037;-64
2021/12/09 15:42:01;;;;;;;3.45;1.77;;;;;;;6.32;93.70;99430.81;8316941;28;20068;-64
2021/12/09 15:46:07;;;;;;;3.70;1.73;;;;;;;6.25;95.50;99418.09;8316265;28;20061;-64
2021/12/09 15:50:11;;;;;;;2.53;1.60;;;;;;;6.13;98.06;99422.72;8320142;28;20049;-64
2021/12/09 15:54:13;;;;;;;3.17;1.77;;;;;;;6.10;98.68;99423.00;8305119;28;20034;-64
2021/12/09 15:58:14;;;;;;;6.07;1.73;;;;;;;6.13;98.70;99422.72;8315288;28;20037;-65
2021/12/09 16:02:19;;;;;;;2.38;1.67;;;;;;;6.03;100.00;99417.34;8314056;28;20057;-65
2021/12/09 16:06:20;;;;;;;3.63;2.53;;;;;;;5.98;100.00;99419.59;8307247;28;20034;-65
2021/12/09 16:10:20;;;;;;;7.05;3.67;;;;;;;5.96;100.00;99420.72;8317046;28;20033;-64
2021/12/09 16:14:25;;;;;;;8.80;2.72;;;;;;;5.88;100.00;99413.38;8314578;28;20033;-64
2021/12/09 16:18:28;;;;;;;5.82;2.65;;;;;;;5.85;100.00;99423.53;8312710;28;20030;-64
2021/12/09 16:22:29;;;;;;;4.43;2.30;;;;;;;5.83;100.00;99422.81;8318938;28;20486;-63
2021/12/09 16:26:30;;;;;;;3.67;2.90;;;;;;;5.81;100.00;99417.59;8318162;28;20515;-64
2021/12/09 16:30:30;;;;;;;8.48;5.07;;;;;;;5.82;100.00;99421.97;8306566;28;20045;-64
2021/12/09 16:34:31;;;;;;;4.95;2.97;;;;;;;5.81;100.00;99416.72;8318780;28;20122;-64
2021/12/09 16:38:37;;;;;;;6.20;3.40;;;;;;;5.78;100.00;99411.63;8308180;28;20378;-64
2021/12/09 16:42:38;;;;;;;18.48;6.38;;;;;;;5.79;100.00;99408.81;8318618;28;20038;-64
2021/12/09 16:46:41;;;;;;;22.00;9.05;;;;;;;5.81;100.00;99400.63;8317007;28;20175;-63
2021/12/09 16:50:44;;;;;;;8.73;4.67;;;;;;;5.84;100.00;99397.69;8318660;28;20041;-63
2021/12/09 16:54:48;;;;;;;11.10;5.45;;;;;;;5.83;100.00;99404.06;8318460;28;20045;-63
2021/12/09 16:58:58;;;;;;;18.35;7.55;;;;;;;5.80;100.00;99398.94;8318057;28;20112;-63
2021/12/09 17:03:01;;;;;;;5.93;2.90;;;;;;;5.82;100.00;99396.97;8315601;28;20041;-64
2021/12/09 17:07:03;;;;;;;6.65;3.22;;;;;;;5.81;100.00;99397.94;8303303;28;20056;-63
2021/12/09 17:11:03;;;;;;;4.10;2.92;;;;;;;5.79;100.00;99402.59;8313335;28;20034;-63
2021/12/09 17:15:10;;;;;;;5.82;4.28;;;;;;;5.82;100.00;99399.66;8312064;28;20041;-64
2021/12/09 17:19:12;;;;;;;5.75;4.22;;;;;;;5.87;100.00;99400.97;8316612;28;20101;-63
2021/12/09 17:23:13;;;;;;;12.88;6.78;;;;;;;5.90;100.00;99405.19;8293444;28;20637;-63
2021/12/09 17:27:14;;;;;;;7.68;4.45;;;;;;;5.90;100.00;99395.31;8311139;28;20385;-63
2021/12/09 17:31:20;;;;;;;4.47;3.67;;;;;;;5.86;100.00;99395.75;8312373;28;20045;-63
2021/12/09 17:35:21;;;;;;;5.60;4.03;;;;;;;5.70;100.00;99395.38;8297283;28;20333;-63
2021/12/09 17:39:22;;;;;;;7.47;4.97;;;;;;;5.69;100.00;99401.72;8297038;28;20041;-63
2021/12/09 17:43:23;;;;;;;9.93;5.90;;;;;;;5.60;100.00;99395.34;8304708;28;20297;-63
2021/12/09 17:47:27;;;;;;;5.18;4.03;;;;;;;5.61;100.00;99393.50;8300346;28;20037;-63
2021/12/09 17:51:27;;;;;;;13.02;9.07;;;;;;;5.61;100.00;99398.88;8304728;28;20061;-64
2021/12/09 17:55:28;;;;;;;4.28;3.67;;;;;;;5.53;100.00;99404.94;8284770;28;20038;-63
2021/12/09 17:59:29;;;;;;;4.22;3.28;;;;;;;5.53;100.00;99406.75;8285215;28;20041;-63
2021/12/09 18:03:29;;;;;;;6.18;3.38;;;;;;;5.49;100.00;99397.31;8311427;28;20208;-63
2021/12/09 18:07:30;;;;;;;8.80;3.35;;;;;;;5.44;100.00;99392.34;8306188;28;20041;-64
2021/12/09 18:11:34;;;;;;;3.70;2.78;;;;;;;5.51;100.00;99398.00;8308673;28;20037;-63
2021/12/09 18:15:35;;;;;;;3.00;2.50;;;;;;;5.58;100.00;99397.31;8282167;28;20042;-64
2021/12/09 18:19:35;;;;;;;7.45;3.65;;;;;;;5.63;100.00;99396.91;8296628;28;20561;-63
2021/12/09 18:23:35;;;;;;;4.00;3.13;;;;;;;5.67;100.00;99403.69;8284820;28;20040;-63
2021/12/09 18:27:37;;;;;;;8.30;3.80;;;;;;;5.71;100.00;99402.44;8287123;28;20048;-64
2021/12/09 18:31:39;;;;;;;7.10;3.88;;;;;;;5.71;100.00;99400.59;8307048;28;20091;-64
2021/12/09 18:35:41;;;;;;;5.38;3.92;;;;;;;5.73;100.00;99403.13;8295304;28;20173;-64
2021/12/09 18:39:44;;;;;;;5.03;2.63;;;;;;;5.72;100.00;99401.44;8284264;28;20373;-64
2021/12/09 18:43:45;;;;;;;4.35;3.58;;;;;;;5.69;100.00;99401.72;8293087;28;20048;-63
2021/12/09 18:47:48;;;;;;;5.70;3.83;;;;;;;5.75;100.00;99395.81;8286100;28;20493;-64
2021/12/09 18:51:54;;;;;;;5.25;3.60;;;;;;;5.67;100.00;99398.31;8285204;28;20371;-64
2021/12/09 18:55:54;;;;;;;8.82;5.40;;;;;;;5.65;100.00;99401.13;8312995;28;20439;-64
2021/12/09 18:59:55;;;;;;;6.75;5.22;;;;;;;5.74;100.00;99405.69;8303682;28;20037;-64
2021/12/09 19:03:56;;;;;;;5.78;3.92;;;;;;;5.72;100.00;99401.44;8310275;28;20041;-64
2021/12/09 19:07:59;;;;;;;6.95;3.63;;;;;;;5.72;100.00;99396.09;8309722;28;20081;-64
2021/12/09 19:11:59;;;;;;;7.97;4.63;;;;;;;5.81;100.00;99390.78;8302121;28;20041;-64
2021/12/09 19:16:01;;;;;;;12.13;5.00;;;;;;;5.90;100.00;99386.41;8302014;28;20045;-63
2021/12/09 19:20:01;;;;;;;12.65;5.28;;;;;;;5.85;100.00;99386.84;8295665;28;20397;-64
2021/12/09 19:24:02;;;;;;;7.25;4.38;;;;;;;5.98;100.00;99387.41;8306696;28;20123;-64
2021/12/09 19:28:03;;;;;;;13.32;6.03;;;;;;;5.99;100.00;99388.25;8300012;28;20415;-64
2021/12/09 19:32:04;;;;;;;21.13;6.47;;;;;;;6.16;100.00;99390.25;8307136;28;20033;-64
2021/12/09 19:36:07;;;;;;;10.45;5.82;;;;;;;6.18;100.00;99388.28;8309323;28;20080;-64
2021/12/09 19:40:09;;;;;;;12.07;6.28;;;;;;;6.15;100.00;99391.25;8305646;28;20445;-64
2021/12/09 19:44:10;;;;;;;21.02;7.30;;;;;;;6.14;100.00;99392.25;8303028;28;20048;-64